sensor_id;sensor_type;location;lat;lon;timestamp;pressure;altitude;pressure_sealevel;temperature;humidity
51099;BME280;37146;48.210;16.234;2022-09-09T00:02:28;98694.59;;;13.13;100.00
51099;BME280;37146;48.210;16.234;2022-09-09T00:05:04;98687.31;;;13.15;100.00
51099;BME280;37146;48.210;16.234;2022-09-09T00:07:48;98687.63;;;13.10;100.00
51099;BME280;37146;48.210;16.234;2022-09-09T00:10:23;98685.31;;;13.04;100.00
51099;BME280;37146;48.210;16.234;2022-09-09T00:13:25;98679.41;;;12.99;100.00
51099;BME280;37146;48.210;16.234;2022-09-09T00:16:04;98684.41;;;12.91;100.00
51099;BME280;37146;48.210;16.234;2022-09-09T00:21:11;98690.63;;;12.78;100.00
51099;BME280;37146;48.210;16.234;2022-09-09T00:23:39;98693.50;;;12.75;100.00
51099;BME280;37146;48.210;16.234;2022-09-09T00:26:32;98690.81;;;12.75;100.00
51099;BME280;37146;48.210;16.234;2022-09-09T00:29:10;98694.28;;;12.77;100.00
51099;BME280;37146;48.210;16.234;2022-09-09T00:31:39;98692.16;;;12.68;100.00
51099;BME280;37146;48.210;16.234;2022-09-09T00:34:20;98687.78;;;12.67;100.00
51099;BME280;37146;48.210;16.234;2022-09-09T00:36:48;98685.19;;;12.65;100.00
51099;BME280;37146;48.210;16.234;2022-09-09T00:39:32;98680.69;;;12.66;100.00
51099;BME280;37146;48.210;16.234;2022-09-09T00:42:20;98688.38;;;12.58;100.00
51099;BME280;37146;48.210;16.234;2022-09-09T00:47:47;98685.31;;;12.64;100.00
51099;BME280;37146;48.210;16.234;2022-09-09T00:50:24;98691.63;;;12.63;100.00
51099;BME280;37146;48.210;16.234;2022-09-09T00:53:14;98693.34;;;12.64;100.00
51099;BME280;37146;48.210;16.234;2022-09-09T00:58:32;98699.78;;;12.61;100.00
51099;BME280;37146;48.210;16.234;2022-09-09T01:01:07;98705.44;;;12.57;100.00
51099;BME280;37146;48.210;16.234;2022-09-09T01:03:42;98703.34;;;12.47;100.00
51099;BME280;37146;48.210;16.234;2022-09-09T01:14:13;98703.47;;;12.31;100.00
51099;BME280;37146;48.210;16.234;2022-09-09T01:16:42;98705.97;;;12.34;100.00
51099;BME280;37146;48.210;16.234;2022-09-09T01:19:09;98716.38;;;12.39;100.00
51099;BME280;37146;48.210;16.234;2022-09-09T01:21:48;98714.38;;;12.43;100.00
51099;BME280;37146;48.210;16.234;2022-09-09T01:24:31;98720.69;;;12.42;100.00
51099;BME280;37146;48.210;16.234;2022-09-09T01:27:03;98726.47;;;12.35;100.00
51099;BME280;37146;48.210;16.234;2022-09-09T01:29:30;98725.56;;;12.35;100.00
51099;BME280;37146;48.210;16.234;2022-09-09T01:32:00;98721.19;;;12.34;100.00
51099;BME280;37146;48.210;16.234;2022-09-09T01:34:29;98727.59;;;12.31;100.00
51099;BME280;37146;48.210;16.234;2022-09-09T01:37:02;98736.22;;;12.22;100.00
51099;BME280;37146;48.210;16.234;2022-09-09T01:39:30;98731.34;;;12.29;100.00
51099;BME280;37146;48.210;16.234;2022-09-09T01:41:56;98719.59;;;12.17;100.00
51099;BME280;37146;48.210;16.234;2022-09-09T01:44:22;98719.78;;;12.14;100.00
51099;BME280;37146;48.210;16.234;2022-09-09T01:46:47;98729.06;;;12.08;100.00
51099;BME280;37146;48.210;16.234;2022-09-09T01:49:13;98729.91;;;12.09;100.00
51099;BME280;37146;48.210;16.234;2022-09-09T01:51:39;98729.06;;;12.08;100.00
51099;BME280;37146;48.210;16.234;2022-09-09T01:54:07;98727.00;;;11.97;100.00
51099;BME280;37146;48.210;16.234;2022-09-09T02:02:10;98733.19;;;12.14;100.00
51099;BME280;37146;48.210;16.234;2022-09-09T02:04:39;98723.41;;;12.13;100.00
51099;BME280;37146;48.210;16.234;2022-09-09T02:09:47;98725.78;;;12.17;100.00
51099;BME280;37146;48.210;16.234;2022-09-09T02:12:14;98720.44;;;12.17;100.00
51099;BME280;37146;48.210;16.234;2022-09-09T02:14:47;98716.22;;;12.13;100.00
51099;BME280;37146;48.210;16.234;2022-09-09T02:17:18;98719.28;;;12.07;100.00
51099;BME280;37146;48.210;16.234;2022-09-09T02:19:49;98710.66;;;12.02;100.00
51099;BME280;37146;48.210;16.234;2022-09-09T02:22:17;98709.47;;;11.91;100.00
51099;BME280;37146;48.210;16.234;2022-09-09T02:24:44;98709.47;;;11.91;100.00
51099;BME280;37146;48.210;16.234;2022-09-09T02:27:11;98714.09;;;11.89;100.00
51099;BME280;37146;48.210;16.234;2022-09-09T02:29:40;98712.94;;;11.94;100.00
51099;BME280;37146;48.210;16.234;2022-09-09T02:32:11;98709.69;;;11.88;100.00
51099;BME280;37146;48.210;16.234;2022-09-09T02:34:42;98704.63;;;11.84;100.00
51099;BME280;37146;48.210;16.234;2022-09-09T02:37:09;98708.25;;;11.83;100.00
51099;BME280;37146;48.210;16.234;2022-09-09T02:39:36;98712.75;;;11.82;100.00
51099;BME280;37146;48.210;16.234;2022-09-09T02:42:03;98712.44;;;11.87;100.00
51099;BME280;37146;48.210;16.234;2022-09-09T02:44:29;98715.41;;;11.82;100.00
51099;BME280;37146;48.210;16.234;2022-09-09T02:50:08;98715.84;;;11.90;100.00
51099;BME280;37146;48.210;16.234;2022-09-09T02:52:59;98718.59;;;11.89;100.00
51099;BME280;37146;48.210;16.234;2022-09-09T02:58:05;98717.75;;;11.88;100.00
51099;BME280;37146;48.210;16.234;2022-09-09T03:00:32;98720.59;;;11.85;100.00
51099;BME280;37146;48.210;16.234;2022-09-09T03:02:58;98720.97;;;11.94;100.00
51099;BME280;37146;48.210;16.234;2022-09-09T03:05:23;98721.38;;;11.87;100.00
51099;BME280;37146;48.210;16.234;2022-09-09T03:07:49;98726.41;;;11.78;100.00
51099;BME280;37146;48.210;16.234;2022-09-09T03:10:16;98720.69;;;11.84;100.00
51099;BME280;37146;48.210;16.234;2022-09-09T03:12:42;98715.72;;;11.78;100.00
51099;BME280;37146;48.210;16.234;2022-09-09T03:15:07;98712.66;;;11.84;100.00
51099;BME280;37146;48.210;16.234;2022-09-09T03:17:33;98709.28;;;11.80;100.00
51099;BME280;37146;48.210;16.234;2022-09-09T03:19:59;98714.09;;;11.75;100.00
51099;BME280;37146;48.210;16.234;2022-09-09T03:22:24;98708.84;;;11.73;100.00
51099;BME280;37146;48.210;16.234;2022-09-09T03:24:53;98713.78;;;11.65;100.00
51099;BME280;37146;48.210;16.234;2022-09-09T03:27:18;98713.69;;;11.67;100.00
51099;BME280;37146;48.210;16.234;2022-09-09T03:29:44;98715.22;;;11.71;100.00
51099;BME280;37146;48.210;16.234;2022-09-09T03:32:10;98705.66;;;11.67;100.00
51099;BME280;37146;48.210;16.234;2022-09-09T03:34:36;98699.34;;;11.68;100.00
51099;BME280;37146;48.210;16.234;2022-09-09T03:37:04;98693.88;;;11.69;100.00
51099;BME280;37146;48.210;16.234;2022-09-09T03:39:30;98689.66;;;11.65;100.00
51099;BME280;37146;48.210;16.234;2022-09-09T03:41:55;98691.03;;;11.72;100.00
51099;BME280;37146;48.210;16.234;2022-09-09T03:44:20;98694.84;;;11.68;100.00
51099;BME280;37146;48.210;16.234;2022-09-09T03:46:46;98701.41;;;11.48;100.00
51099;BME280;37146;48.210;16.234;2022-09-09T03:49:11;98705.81;;;11.49;100.00
51099;BME280;37146;48.210;16.234;2022-09-09T03:51:36;98704.47;;;11.42;100.00
51099;BME280;37146;48.210;16.234;2022-09-09T03:54:04;98708.88;;;11.43;100.00
51099;BME280;37146;48.210;16.234;2022-09-09T03:56:30;98699.88;;;11.44;100.00
51099;BME280;37146;48.210;16.234;2022-09-09T03:58:56;98697.00;;;11.47;100.00
51099;BME280;37146;48.210;16.234;2022-09-09T04:01:22;98701.78;;;11.42;100.00
51099;BME280;37146;48.210;16.234;2022-09-09T04:03:48;98701.59;;;11.45;100.00
51099;BME280;37146;48.210;16.234;2022-09-09T04:06:14;98700.66;;;11.46;100.00
51099;BME280;37146;48.210;16.234;2022-09-09T04:08:40;98697.88;;;11.48;100.00
51099;BME280;37146;48.210;16.234;2022-09-09T04:11:06;98698.72;;;11.34;100.00
51099;BME280;37146;48.210;16.234;2022-09-09T04:13:36;98697.06;;;11.31;100.00
51099;BME280;37146;48.210;16.234;2022-09-09T04:16:04;98698.50;;;11.22;100.00
51099;BME280;37146;48.210;16.234;2022-09-09T04:18:30;98707.31;;;11.24;100.00
51099;BME280;37146;48.210;16.234;2022-09-09T04:20:56;98711.22;;;11.19;100.00
51099;BME280;37146;48.210;16.234;2022-09-09T04:23:27;98710.78;;;11.10;100.00
51099;BME280;37146;48.210;16.234;2022-09-09T04:25:55;98710.59;;;11.13;100.00
51099;BME280;37146;48.210;16.234;2022-09-09T04:28:23;98710.69;;;11.12;100.00
51099;BME280;37146;48.210;16.234;2022-09-09T04:30:50;98711.44;;;11.14;100.00
51099;BME280;37146;48.210;16.234;2022-09-09T04:33:15;98713.16;;;11.15;100.00
51099;BME280;37146;48.210;16.234;2022-09-09T04:35:47;98715.44;;;11.07;100.00
51099;BME280;37146;48.210;16.234;2022-09-09T04:38:13;98715.63;;;11.04;100.00
51099;BME280;37146;48.210;16.234;2022-09-09T04:40:38;98718.03;;;11.08;100.00
51099;BME280;37146;48.210;16.234;2022-09-09T04:43:08;98720.53;;;11.11;100.00
51099;BME280;37146;48.210;16.234;2022-09-09T04:45:34;98722.34;;;11.11;100.00
51099;BME280;37146;48.210;16.234;2022-09-09T04:48:00;98725.88;;;11.11;100.00
51099;BME280;37146;48.210;16.234;2022-09-09T04:50:25;98725.72;;;11.14;100.00
51099;BME280;37146;48.210;16.234;2022-09-09T04:52:51;98732.69;;;11.17;100.00
51099;BME280;37146;48.210;16.234;2022-09-09T04:55:16;98735.47;;;11.16;100.00
51099;BME280;37146;48.210;16.234;2022-09-09T04:57:41;98739.38;;;11.10;100.00
51099;BME280;37146;48.210;16.234;2022-09-09T05:00:07;98732.28;;;11.09;100.00
51099;BME280;37146;48.210;16.234;2022-09-09T05:02:37;98742.38;;;11.04;100.00
51099;BME280;37146;48.210;16.234;2022-09-09T05:05:03;98740.84;;;11.00;100.00
51099;BME280;37146;48.210;16.234;2022-09-09T05:07:28;98740.06;;;10.97;100.00
51099;BME280;37146;48.210;16.234;2022-09-09T05:09:54;98738.50;;;10.93;100.00
51099;BME280;37146;48.210;16.234;2022-09-09T05:12:19;98749.66;;;11.02;100.00
51099;BME280;37146;48.210;16.234;2022-09-09T05:14:44;98753.03;;;11.05;100.00
51099;BME280;37146;48.210;16.234;2022-09-09T05:17:10;98756.47;;;11.07;100.00
51099;BME280;37146;48.210;16.234;2022-09-09T05:19:36;98748.75;;;11.17;100.00
51099;BME280;37146;48.210;16.234;2022-09-09T05:22:01;98752.47;;;11.14;100.00
51099;BME280;37146;48.210;16.234;2022-09-09T05:24:27;98743.91;;;11.24;100.00
51099;BME280;37146;48.210;16.234;2022-09-09T05:26:52;98744.41;;;11.31;100.00
51099;BME280;37146;48.210;16.234;2022-09-09T05:29:18;98747.88;;;11.33;100.00
51099;BME280;37146;48.210;16.234;2022-09-09T05:31:44;98751.09;;;11.38;100.00
51099;BME280;37146;48.210;16.234;2022-09-09T05:34:10;98761.81;;;11.38;100.00
51099;BME280;37146;48.210;16.234;2022-09-09T05:36:36;98761.09;;;11.50;100.00
51099;BME280;37146;48.210;16.234;2022-09-09T05:39:01;98758.34;;;11.52;100.00
51099;BME280;37146;48.210;16.234;2022-09-09T05:41:27;98754.16;;;11.62;100.00
51099;BME280;37146;48.210;16.234;2022-09-09T05:43:53;98752.44;;;11.61;100.00
51099;BME280;37146;48.210;16.234;2022-09-09T05:46:21;98747.66;;;11.66;100.00
51099;BME280;37146;48.210;16.234;2022-09-09T05:48:47;98747.78;;;11.79;100.00
51099;BME280;37146;48.210;16.234;2022-09-09T05:51:15;98753.72;;;11.84;100.00
51099;BME280;37146;48.210;16.234;2022-09-09T05:53:42;98757.34;;;11.83;100.00
51099;BME280;37146;48.210;16.234;2022-09-09T05:56:13;98755.50;;;12.00;100.00
51099;BME280;37146;48.210;16.234;2022-09-09T05:58:43;98762.56;;;12.01;100.00
51099;BME280;37146;48.210;16.234;2022-09-09T06:03:45;98756.22;;;12.02;100.00
51099;BME280;37146;48.210;16.234;2022-09-09T06:06:14;98751.75;;;12.02;100.00
51099;BME280;37146;48.210;16.234;2022-09-09T06:08:41;98746.22;;;12.05;100.00
51099;BME280;37146;48.210;16.234;2022-09-09T06:11:20;98752.06;;;12.12;100.00
51099;BME280;37146;48.210;16.234;2022-09-09T06:13:47;98740.94;;;12.18;100.00
51099;BME280;37146;48.210;16.234;2022-09-09T06:16:17;98736.16;;;12.09;100.00
51099;BME280;37146;48.210;16.234;2022-09-09T06:18:43;98739.69;;;12.24;100.00
51099;BME280;37146;48.210;16.234;2022-09-09T06:21:17;98735.16;;;12.25;100.00
51099;BME280;37146;48.210;16.234;2022-09-09T06:23:43;98741.66;;;12.35;100.00
51099;BME280;37146;48.210;16.234;2022-09-09T06:26:14;98740.41;;;12.55;100.00
51099;BME280;37146;48.210;16.234;2022-09-09T06:28:41;98741.03;;;12.73;100.00
51099;BME280;37146;48.210;16.234;2022-09-09T06:31:10;98732.84;;;12.89;100.00
51099;BME280;37146;48.210;16.234;2022-09-09T06:33:40;98718.34;;;13.19;100.00
51099;BME280;37146;48.210;16.234;2022-09-09T06:36:15;98719.41;;;13.57;100.00
51099;BME280;37146;48.210;16.234;2022-09-09T06:38:41;98713.53;;;13.78;100.00
51099;BME280;37146;48.210;16.234;2022-09-09T06:41:08;98727.16;;;14.00;100.00
51099;BME280;37146;48.210;16.234;2022-09-09T06:43:34;98728.88;;;14.01;100.00
51099;BME280;37146;48.210;16.234;2022-09-09T06:48:30;98737.81;;;14.15;100.00
51099;BME280;37146;48.210;16.234;2022-09-09T06:51:07;98753.63;;;14.19;100.00
51099;BME280;37146;48.210;16.234;2022-09-09T06:53:34;98750.84;;;14.21;100.00
51099;BME280;37146;48.210;16.234;2022-09-09T06:56:01;98747.56;;;14.29;100.00
51099;BME280;37146;48.210;16.234;2022-09-09T06:58:27;98740.25;;;14.44;100.00
51099;BME280;37146;48.210;16.234;2022-09-09T07:01:04;98727.94;;;14.52;100.00
51099;BME280;37146;48.210;16.234;2022-09-09T07:03:30;98735.66;;;14.83;100.00
51099;BME280;37146;48.210;16.234;2022-09-09T07:05:56;98734.28;;;15.02;100.00
51099;BME280;37146;48.210;16.234;2022-09-09T07:08:22;98727.81;;;15.28;100.00
51099;BME280;37146;48.210;16.234;2022-09-09T07:10:48;98730.88;;;15.35;100.00
51099;BME280;37146;48.210;16.234;2022-09-09T07:13:14;98728.06;;;15.37;100.00
51099;BME280;37146;48.210;16.234;2022-09-09T07:15:41;98728.63;;;15.53;100.00
51099;BME280;37146;48.210;16.234;2022-09-09T07:18:06;98722.25;;;15.66;100.00
51099;BME280;37146;48.210;16.234;2022-09-09T07:20:31;98736.50;;;15.79;100.00
51099;BME280;37146;48.210;16.234;2022-09-09T07:22:57;98729.84;;;15.96;100.00
51099;BME280;37146;48.210;16.234;2022-09-09T07:25:23;98732.19;;;16.12;100.00
51099;BME280;37146;48.210;16.234;2022-09-09T07:27:49;98731.72;;;16.30;100.00
51099;BME280;37146;48.210;16.234;2022-09-09T07:30:14;98731.56;;;16.43;100.00
51099;BME280;37146;48.210;16.234;2022-09-09T07:32:39;98723.34;;;16.56;100.00
51099;BME280;37146;48.210;16.234;2022-09-09T07:35:05;98729.22;;;16.61;100.00
51099;BME280;37146;48.210;16.234;2022-09-09T07:37:31;98725.00;;;16.79;100.00
51099;BME280;37146;48.210;16.234;2022-09-09T07:39:56;98722.53;;;16.99;100.00
51099;BME280;37146;48.210;16.234;2022-09-09T07:42:22;98734.38;;;17.19;99.84
51099;BME280;37146;48.210;16.234;2022-09-09T07:44:47;98726.84;;;17.34;97.45
51099;BME280;37146;48.210;16.234;2022-09-09T07:47:12;98731.34;;;17.66;97.54
51099;BME280;37146;48.210;16.234;2022-09-09T07:49:38;98731.16;;;18.00;92.63
51099;BME280;37146;48.210;16.234;2022-09-09T07:52:03;98744.19;;;18.37;90.91
51099;BME280;37146;48.210;16.234;2022-09-09T07:54:28;98739.28;;;18.62;95.09
51099;BME280;37146;48.210;16.234;2022-09-09T07:56:54;98744.72;;;18.72;91.91
51099;BME280;37146;48.210;16.234;2022-09-09T07:59:20;98738.75;;;18.88;87.35
51099;BME280;37146;48.210;16.234;2022-09-09T08:01:48;98736.00;;;19.09;90.38
51099;BME280;37146;48.210;16.234;2022-09-09T08:04:16;98743.56;;;19.25;83.06
51099;BME280;37146;48.210;16.234;2022-09-09T08:06:47;98753.56;;;19.44;81.81
51099;BME280;37146;48.210;16.234;2022-09-09T08:09:13;98749.28;;;19.42;81.08
51099;BME280;37146;48.210;16.234;2022-09-09T08:11:40;98730.72;;;19.47;80.48
51099;BME280;37146;48.210;16.234;2022-09-09T08:14:07;98735.88;;;19.50;79.63
51099;BME280;37146;48.210;16.234;2022-09-09T08:16:35;98737.72;;;19.59;79.12
51099;BME280;37146;48.210;16.234;2022-09-09T08:19:02;98728.44;;;19.52;77.31
51099;BME280;37146;48.210;16.234;2022-09-09T08:21:31;98731.88;;;19.44;78.24
51099;BME280;37146;48.210;16.234;2022-09-09T08:23:58;98742.56;;;19.66;77.86
51099;BME280;37146;48.210;16.234;2022-09-09T08:26:26;98749.41;;;19.70;76.75
51099;BME280;37146;48.210;16.234;2022-09-09T08:28:55;98745.28;;;20.33;75.88
51099;BME280;37146;48.210;16.234;2022-09-09T08:31:26;98746.09;;;21.09;72.87
51099;BME280;37146;48.210;16.234;2022-09-09T08:33:56;98754.19;;;21.55;70.48
51099;BME280;37146;48.210;16.234;2022-09-09T08:36:24;98750.50;;;22.00;66.52
51099;BME280;37146;48.210;16.234;2022-09-09T08:38:52;98746.88;;;21.73;65.57
51099;BME280;37146;48.210;16.234;2022-09-09T08:44:48;98747.50;;;22.73;60.46
51099;BME280;37146;48.210;16.234;2022-09-09T08:52:44;98722.19;;;25.57;46.63
51099;BME280;37146;48.210;16.234;2022-09-09T08:58:15;98720.94;;;26.21;46.36
51099;BME280;37146;48.210;16.234;2022-09-09T09:11:40;98724.41;;;27.26;43.49
51099;BME280;37146;48.210;16.234;2022-09-09T09:14:18;98715.25;;;26.82;43.63
51099;BME280;37146;48.210;16.234;2022-09-09T09:17:06;98719.53;;;28.15;42.95
51099;BME280;37146;48.210;16.234;2022-09-09T09:19:35;98717.94;;;28.28;40.17
51099;BME280;37146;48.210;16.234;2022-09-09T09:27:57;98717.94;;;28.63;39.50
51099;BME280;37146;48.210;16.234;2022-09-09T09:30:34;98707.63;;;28.36;40.13
51099;BME280;37146;48.210;16.234;2022-09-09T09:33:35;98703.28;;;26.75;42.90
51099;BME280;37146;48.210;16.234;2022-09-09T09:36:05;98699.94;;;26.28;42.23
51099;BME280;37146;48.210;16.234;2022-09-09T09:38:33;98691.59;;;26.21;41.52
51099;BME280;37146;48.210;16.234;2022-09-09T09:40:59;98683.16;;;26.08;43.97
51099;BME280;37146;48.210;16.234;2022-09-09T09:43:33;98683.25;;;26.90;42.46
51099;BME280;37146;48.210;16.234;2022-09-09T09:45:59;98692.59;;;27.54;42.03
51099;BME280;37146;48.210;16.234;2022-09-09T09:48:26;98685.72;;;26.69;41.37
51099;BME280;37146;48.210;16.234;2022-09-09T09:51:00;98687.38;;;26.19;43.72
51099;BME280;37146;48.210;16.234;2022-09-09T09:53:29;98689.72;;;26.37;43.87
51099;BME280;37146;48.210;16.234;2022-09-09T09:55:58;98690.06;;;26.94;43.81
51099;BME280;37146;48.210;16.234;2022-09-09T09:58:25;98689.78;;;26.74;42.96
51099;BME280;37146;48.210;16.234;2022-09-09T10:00:53;98690.31;;;26.99;43.21
51099;BME280;37146;48.210;16.234;2022-09-09T10:03:25;98682.00;;;26.92;42.19
51099;BME280;37146;48.210;16.234;2022-09-09T10:05:52;98688.28;;;26.41;44.12
51099;BME280;37146;48.210;16.234;2022-09-09T10:08:18;98683.94;;;26.47;42.22
51099;BME280;37146;48.210;16.234;2022-09-09T10:19:19;98686.13;;;26.66;42.01
51099;BME280;37146;48.210;16.234;2022-09-09T10:24:33;98681.84;;;25.89;44.61
51099;BME280;37146;48.210;16.234;2022-09-09T10:27:15;98692.91;;;24.79;46.33
51099;BME280;37146;48.210;16.234;2022-09-09T10:30:00;98682.31;;;24.76;46.89
51099;BME280;37146;48.210;16.234;2022-09-09T10:32:37;98685.13;;;24.51;48.73
51099;BME280;37146;48.210;16.234;2022-09-09T10:40:33;98686.84;;;25.15;46.41
51099;BME280;37146;48.210;16.234;2022-09-09T10:43:14;98682.34;;;26.67;43.71
51099;BME280;37146;48.210;16.234;2022-09-09T10:45:54;98684.78;;;26.62;42.51
51099;BME280;37146;48.210;16.234;2022-09-09T10:48:27;98682.03;;;27.36;41.16
51099;BME280;37146;48.210;16.234;2022-09-09T10:56:30;98688.16;;;28.38;38.70
51099;BME280;37146;48.210;16.234;2022-09-09T10:59:00;98684.88;;;27.64;40.03
51099;BME280;37146;48.210;16.234;2022-09-09T11:01:38;98687.13;;;27.82;40.75
51099;BME280;37146;48.210;16.234;2022-09-09T11:04:13;98697.25;;;26.95;42.68
51099;BME280;37146;48.210;16.234;2022-09-09T11:06:44;98695.28;;;26.74;43.29
51099;BME280;37146;48.210;16.234;2022-09-09T11:09:35;98689.31;;;26.70;43.89
51099;BME280;37146;48.210;16.234;2022-09-09T11:11:59;98681.22;;;26.17;46.20
51099;BME280;37146;48.210;16.234;2022-09-09T11:14:36;98687.38;;;25.42;46.72
51099;BME280;37146;48.210;16.234;2022-09-09T11:17:11;98679.84;;;24.90;50.43
51099;BME280;37146;48.210;16.234;2022-09-09T11:19:39;98676.59;;;24.86;47.32
51099;BME280;37146;48.210;16.234;2022-09-09T11:22:29;98686.63;;;24.62;47.16
51099;BME280;37146;48.210;16.234;2022-09-09T11:25:01;98678.81;;;24.51;47.23
51099;BME280;37146;48.210;16.234;2022-09-09T11:27:40;98679.25;;;24.63;48.15
51099;BME280;37146;48.210;16.234;2022-09-09T11:41:50;98664.47;;;24.01;50.10
51099;BME280;37146;48.210;16.234;2022-09-09T11:44:29;98656.84;;;24.28;49.34
51099;BME280;37146;48.210;16.234;2022-09-09T11:46:55;98657.56;;;24.93;49.96
51099;BME280;37146;48.210;16.234;2022-09-09T11:49:29;98654.38;;;25.12;47.31
51099;BME280;37146;48.210;16.234;2022-09-09T11:52:38;98648.66;;;25.22;46.00
51099;BME280;37146;48.210;16.234;2022-09-09T12:00:47;98654.50;;;24.16;48.32
51099;BME280;37146;48.210;16.234;2022-09-09T12:06:08;98651.03;;;24.31;47.67
51099;BME280;37146;48.210;16.234;2022-09-09T12:08:35;98654.59;;;24.39;50.41
51099;BME280;37146;48.210;16.234;2022-09-09T12:11:02;98654.94;;;24.36;51.22
51099;BME280;37146;48.210;16.234;2022-09-09T12:13:30;98650.00;;;24.32;49.79
51099;BME280;37146;48.210;16.234;2022-09-09T12:15:58;98644.50;;;24.40;50.79
51099;BME280;37146;48.210;16.234;2022-09-09T12:18:34;98639.31;;;24.53;52.86
51099;BME280;37146;48.210;16.234;2022-09-09T12:23:47;98644.72;;;24.70;50.48
51099;BME280;37146;48.210;16.234;2022-09-09T12:26:58;98634.47;;;24.64;50.18
51099;BME280;37146;48.210;16.234;2022-09-09T12:34:41;98638.75;;;24.35;52.88
51099;BME280;37146;48.210;16.234;2022-09-09T12:37:29;98626.72;;;24.44;52.40
51099;BME280;37146;48.210;16.234;2022-09-09T12:39:59;98620.78;;;24.41;54.68
51099;BME280;37146;48.210;16.234;2022-09-09T12:42:26;98634.19;;;24.11;52.08
51099;BME280;37146;48.210;16.234;2022-09-09T12:44:53;98623.00;;;23.81;51.33
51099;BME280;37146;48.210;16.234;2022-09-09T12:47:21;98629.66;;;23.78;52.76
51099;BME280;37146;48.210;16.234;2022-09-09T12:49:48;98621.16;;;23.56;52.96
51099;BME280;37146;48.210;16.234;2022-09-09T12:52:38;98624.41;;;23.52;56.79
51099;BME280;37146;48.210;16.234;2022-09-09T12:55:05;98619.13;;;23.50;56.36
51099;BME280;37146;48.210;16.234;2022-09-09T12:57:38;98619.47;;;23.39;58.41
51099;BME280;37146;48.210;16.234;2022-09-09T13:00:07;98611.63;;;23.36;58.87
51099;BME280;37146;48.210;16.234;2022-09-09T13:02:34;98611.59;;;23.11;58.02
51099;BME280;37146;48.210;16.234;2022-09-09T13:05:14;98600.34;;;22.97;57.28
51099;BME280;37146;48.210;16.234;2022-09-09T13:07:41;98600.66;;;22.94;56.62
51099;BME280;37146;48.210;16.234;2022-09-09T13:10:11;98596.59;;;22.82;58.90
51099;BME280;37146;48.210;16.234;2022-09-09T13:12:36;98602.19;;;22.64;58.65
51099;BME280;37146;48.210;16.234;2022-09-09T13:15:03;98596.88;;;22.62;61.37
51099;BME280;37146;48.210;16.234;2022-09-09T13:17:28;98595.66;;;22.57;60.96
51099;BME280;37146;48.210;16.234;2022-09-09T13:19:54;98595.47;;;22.42;61.45
51099;BME280;37146;48.210;16.234;2022-09-09T13:22:34;98595.03;;;22.28;60.85
51099;BME280;37146;48.210;16.234;2022-09-09T13:25:04;98600.78;;;22.17;62.05
51099;BME280;37146;48.210;16.234;2022-09-09T13:27:33;98595.00;;;22.12;63.00
51099;BME280;37146;48.210;16.234;2022-09-09T13:29:59;98603.13;;;22.03;63.39
51099;BME280;37146;48.210;16.234;2022-09-09T13:32:26;98610.63;;;22.01;62.73
51099;BME280;37146;48.210;16.234;2022-09-09T13:34:57;98609.19;;;21.89;64.58
51099;BME280;37146;48.210;16.234;2022-09-09T13:37:29;98604.53;;;21.81;64.69
51099;BME280;37146;48.210;16.234;2022-09-09T13:39:56;98610.13;;;21.71;65.27
51099;BME280;37146;48.210;16.234;2022-09-09T13:42:27;98613.47;;;21.65;64.35
51099;BME280;37146;48.210;16.234;2022-09-09T13:44:53;98610.03;;;21.63;65.80
51099;BME280;37146;48.210;16.234;2022-09-09T13:47:26;98621.03;;;21.53;68.28
51099;BME280;37146;48.210;16.234;2022-09-09T13:49:53;98625.31;;;21.38;70.22
51099;BME280;37146;48.210;16.234;2022-09-09T13:52:19;98620.78;;;21.02;78.01
51099;BME280;37146;48.210;16.234;2022-09-09T13:54:49;98618.44;;;20.71;81.51
51099;BME280;37146;48.210;16.234;2022-09-09T13:57:25;98609.09;;;20.55;83.81
51099;BME280;37146;48.210;16.234;2022-09-09T13:59:52;98613.63;;;20.37;89.70
51099;BME280;37146;48.210;16.234;2022-09-09T14:02:19;98622.75;;;20.18;91.51
51099;BME280;37146;48.210;16.234;2022-09-09T14:04:46;98635.69;;;19.96;95.19
51099;BME280;37146;48.210;16.234;2022-09-09T14:07:16;98634.94;;;19.56;100.00
51099;BME280;37146;48.210;16.234;2022-09-09T14:09:42;98655.81;;;19.16;100.00
51099;BME280;37146;48.210;16.234;2022-09-09T14:12:10;98651.53;;;18.94;100.00
51099;BME280;37146;48.210;16.234;2022-09-09T14:14:36;98649.22;;;18.80;100.00
51099;BME280;37146;48.210;16.234;2022-09-09T14:17:01;98646.31;;;18.62;100.00
51099;BME280;37146;48.210;16.234;2022-09-09T14:19:26;98641.44;;;18.46;100.00
51099;BME280;37146;48.210;16.234;2022-09-09T14:21:52;98652.50;;;18.23;100.00
51099;BME280;37146;48.210;16.234;2022-09-09T14:24:17;98646.44;;;18.10;100.00
51099;BME280;37146;48.210;16.234;2022-09-09T14:26:42;98644.88;;;18.07;100.00
51099;BME280;37146;48.210;16.234;2022-09-09T14:29:08;98645.47;;;18.11;100.00
51099;BME280;37146;48.210;16.234;2022-09-09T14:31:33;98653.56;;;18.01;100.00
51099;BME280;37146;48.210;16.234;2022-09-09T14:33:59;98644.56;;;18.00;100.00
51099;BME280;37146;48.210;16.234;2022-09-09T14:36:24;98644.56;;;18.00;100.00
51099;BME280;37146;48.210;16.234;2022-09-09T14:38:50;98644.56;;;18.00;100.00
51099;BME280;37146;48.210;16.234;2022-09-09T14:41:16;98643.22;;;17.95;100.00
51099;BME280;37146;48.210;16.234;2022-09-09T14:43:43;98646.09;;;17.93;100.00
51099;BME280;37146;48.210;16.234;2022-09-09T14:46:11;98641.19;;;17.87;100.00
51099;BME280;37146;48.210;16.234;2022-09-09T14:48:37;98639.94;;;17.91;100.00
51099;BME280;37146;48.210;16.234;2022-09-09T14:51:17;98640.09;;;17.89;100.00